Time;durP1;ratioP1;P1;durP2;ratioP2;P2;SDS_P1;SDS_P2;PMS_P1;PMS_P2;Temp;Humidity;BMP_temperature;BMP_pressure;BME280_temperature;BME280_humidity;BME280_pressure;Samples;Min_cycle;Max_cycle;Signal;HPM_P1;HPM_P2
2021/06/25 00:00:07;;;;;;;7.05;5.78;;;;;;;14.23;100.00;96097.38;1034870;28;20088;-67
2021/06/25 00:00:38;;;;;;;6.25;5.22;;;;;;;14.16;100.00;96092.41;1030802;28;20046;-67
2021/06/25 00:01:09;;;;;;;6.05;5.25;;;;;;;14.23;100.00;96097.38;1030910;28;20041;-70
2021/06/25 00:01:39;;;;;;;9.48;8.18;;;;;;;14.18;100.00;96085.00;1034652;28;20024;-67
2021/06/25 00:02:10;;;;;;;5.85;5.22;;;;;;;14.22;100.00;96096.59;1026466;28;20042;-68
2021/06/25 00:02:40;;;;;;;6.95;5.00;;;;;;;14.21;100.00;96092.38;1035123;28;20033;-67
2021/06/25 00:03:11;;;;;;;5.43;4.80;;;;;;;14.21;100.00;96096.84;1026089;28;20162;-68
2021/06/25 00:03:42;;;;;;;6.35;5.30;;;;;;;14.12;100.00;96076.34;1022581;29;20031;-68
2021/06/25 00:04:12;;;;;;;6.85;6.07;;;;;;;14.11;100.00;96079.25;1022823;29;20043;-67
2021/06/25 00:04:43;;;;;;;9.55;6.88;;;;;;;14.22;100.00;96098.44;1038912;28;20541;-69
2021/06/25 00:05:17;;;;;;;8.68;7.00;;;;;;;14.22;100.00;96088.69;1034696;28;20129;-69
2021/06/25 00:05:47;;;;;;;7.50;6.20;;;;;;;14.20;100.00;96090.00;1022967;29;20130;-70
2021/06/25 00:06:18;;;;;;;7.45;6.28;;;;;;;14.18;100.00;96090.28;1034702;28;20037;-69
2021/06/25 00:06:51;;;;;;;9.82;6.90;;;;;;;14.15;100.00;96080.25;1030544;28;20495;-67
2021/06/25 00:07:22;;;;;;;8.85;6.75;;;;;;;14.19;100.00;96091.88;1022915;29;20104;-67
2021/06/25 00:07:53;;;;;;;12.18;7.63;;;;;;;14.18;100.00;96095.56;1022746;29;20142;-67
2021/06/25 00:08:24;;;;;;;7.82;6.05;;;;;;;14.05;100.00;96072.44;1026788;28;20568;-68
2021/06/25 00:08:55;;;;;;;6.72;6.10;;;;;;;14.18;100.00;96095.56;1026431;28;20027;-67
2021/06/25 00:09:28;;;;;;;6.30;5.55;;;;;;;14.17;100.00;96093.97;1031138;28;20021;-69
2021/06/25 00:09:59;;;;;;;7.57;6.45;;;;;;;14.16;100.00;96087.13;1035123;28;20053;-68
2021/06/25 00:10:33;;;;;;;8.15;5.95;;;;;;;14.15;100.00;96096.09;1024721;28;20037;-67
2021/06/25 00:11:03;;;;;;;10.45;6.82;;;;;;;14.17;100.00;96099.25;1026822;28;20026;-67
2021/06/25 00:11:34;;;;;;;6.47;5.88;;;;;;;14.17;100.00;96087.94;1022769;28;20118;-67
2021/06/25 00:12:06;;;;;;;7.00;4.93;;;;;;;14.15;100.00;96099.56;1023855;28;20042;-68
2021/06/25 00:12:37;;;;;;;5.40;4.90;;;;;;;14.13;100.00;96092.97;1023725;28;20338;-67
2021/06/25 00:13:07;;;;;;;7.68;5.75;;;;;;;14.14;100.00;96090.03;1031255;28;20027;-67
2021/06/25 00:13:38;;;;;;;7.35;6.00;;;;;;;14.15;100.00;96088.19;1038099;28;20026;-68
2021/06/25 00:14:08;;;;;;;7.53;5.55;;;;;;;14.17;100.00;96088.72;1026682;28;20022;-68
2021/06/25 00:14:39;;;;;;;7.93;6.97;;;;;;;14.17;100.00;96093.19;1026343;28;20058;-68
2021/06/25 00:15:13;;;;;;;6.28;5.68;;;;;;;14.15;100.00;96096.09;1029956;28;20027;-67
2021/06/25 00:15:43;;;;;;;8.88;6.15;;;;;;;14.15;100.00;96094.28;1026630;28;20018;-69
2021/06/25 00:16:14;;;;;;;5.50;4.10;;;;;;;14.14;100.00;96086.63;1026856;28;20408;-66
2021/06/25 00:16:45;;;;;;;5.32;4.82;;;;;;;14.07;100.00;96086.16;1026401;28;20448;-67
2021/06/25 00:17:15;;;;;;;6.63;5.88;;;;;;;14.11;100.00;96089.81;1026637;28;20043;-69
2021/06/25 00:17:46;;;;;;;10.60;6.82;;;;;;;14.12;100.00;96091.41;1026990;28;20756;-67
2021/06/25 00:18:16;;;;;;;11.52;7.70;;;;;;;14.10;100.00;96094.31;1022481;28;20028;-67
2021/06/25 00:18:47;;;;;;;6.93;5.85;;;;;;;14.04;100.00;96089.34;1023957;28;20023;-67
2021/06/25 00:19:18;;;;;;;5.85;4.93;;;;;;;14.09;100.00;96091.94;1027172;28;20030;-69
2021/06/25 00:19:49;;;;;;;6.43;5.55;;;;;;;14.08;100.00;96095.63;1026972;28;20026;-67
2021/06/25 00:20:20;;;;;;;5.90;5.30;;;;;;;14.06;100.00;96092.50;1030605;28;20026;-68
2021/06/25 00:20:50;;;;;;;7.72;5.15;;;;;;;14.06;100.00;96082.72;1022849;28;20402;-66
2021/06/25 00:21:21;;;;;;;7.32;6.45;;;;;;;14.08;100.00;96093.81;1027392;28;20048;-66
2021/06/25 00:21:54;;;;;;;8.20;6.28;;;;;;;14.11;100.00;96095.09;1039388;28;20450;-68
2021/06/25 00:22:26;;;;;;;7.47;6.38;;;;;;;14.03;100.00;96082.50;1032202;28;20362;-66
2021/06/25 00:22:56;;;;;;;12.68;8.88;;;;;;;14.13;100.00;96087.69;1029987;28;20018;-68
2021/06/25 00:23:29;;;;;;;6.13;5.30;;;;;;;14.10;100.00;96080.31;1030382;28;20022;-67
2021/06/25 00:24:00;;;;;;;5.72;4.88;;;;;;;14.06;100.00;96092.50;1027227;28;20102;-67
2021/06/25 00:24:33;;;;;;;7.75;6.00;;;;;;;14.03;100.00;96082.50;1030570;28;20027;-67
2021/06/25 00:25:04;;;;;;;5.20;4.70;;;;;;;14.06;100.00;96089.84;1028091;28;20015;-68
2021/06/25 00:25:35;;;;;;;6.43;5.05;;;;;;;14.05;100.00;96086.44;1034801;28;20550;-67
2021/06/25 00:26:06;;;;;;;5.72;4.55;;;;;;;14.01;100.00;96080.13;1035010;28;20073;-68
2021/06/25 00:26:36;;;;;;;5.38;4.80;;;;;;;14.04;100.00;96090.13;1031185;28;20504;-68
2021/06/25 00:27:07;;;;;;;4.20;3.80;;;;;;;14.02;100.00;96086.19;1026249;28;20149;-67
2021/06/25 00:27:44;;;;;;;4.90;4.50;;;;;;;13.94;100.00;96073.59;1022837;29;20102;-66
2021/06/25 00:28:15;;;;;;;5.35;4.60;;;;;;;13.99;100.00;96086.75;1026630;28;20034;-67
2021/06/25 00:28:45;;;;;;;6.60;5.65;;;;;;;13.96;100.00;96076.75;1034361;28;20069;-67
2021/06/25 00:29:19;;;;;;;6.63;5.93;;;;;;;13.89;100.00;96067.28;1026382;28;20507;-68
2021/06/25 00:29:49;;;;;;;7.18;5.88;;;;;;;13.93;100.00;96085.22;1026531;28;20102;-67
2021/06/25 00:30:20;;;;;;;5.43;4.88;;;;;;;13.94;100.00;96084.13;1024137;28;20092;-66
2021/06/25 00:30:50;;;;;;;6.03;4.40;;;;;;;13.87;100.00;96074.69;1022691;28;20474;-67
2021/06/25 00:31:20;;;;;;;6.18;5.25;;;;;;;13.95;100.00;96083.06;1026698;28;20507;-67
2021/06/25 00:31:51;;;;;;;8.43;6.32;;;;;;;13.97;100.00;96089.66;1023381;28;20397;-67
2021/06/25 00:32:25;;;;;;;6.03;5.43;;;;;;;13.95;100.00;96078.59;1027556;28;20108;-66
2021/06/25 00:32:56;;;;;;;9.13;6.10;;;;;;;13.91;100.00;96077.56;1027249;28;20027;-66
2021/06/25 00:33:26;;;;;;;6.18;5.00;;;;;;;13.95;100.00;96085.69;1022156;28;20023;-68
2021/06/25 00:33:59;;;;;;;8.43;5.45;;;;;;;13.95;100.00;96085.69;1022164;29;20047;-67
2021/06/25 00:34:30;;;;;;;4.90;4.40;;;;;;;13.87;100.00;96074.69;1022472;29;20062;-67
2021/06/25 00:35:00;;;;;;;8.88;5.10;;;;;;;13.86;100.00;96075.75;1026678;28;20034;-67
2021/06/25 00:35:31;;;;;;;5.45;4.95;;;;;;;13.92;100.00;96084.41;1026152;28;20030;-67
2021/06/25 00:36:02;;;;;;;8.75;5.72;;;;;;;13.88;100.00;96076.28;1027505;28;20045;-66
2021/06/25 00:36:32;;;;;;;7.82;4.70;;;;;;;13.91;100.00;96086.25;1026612;28;20034;-69
2021/06/25 00:37:03;;;;;;;5.30;4.20;;;;;;;13.91;100.00;96082.81;1023063;28;20409;-67
2021/06/25 00:37:33;;;;;;;4.80;4.30;;;;;;;13.92;100.00;96089.69;1026702;28;20023;-67
2021/06/25 00:38:04;;;;;;;5.20;3.75;;;;;;;13.83;100.00;96078.94;1034932;28;20041;-66
2021/06/25 00:38:35;;;;;;;4.35;3.30;;;;;;;13.86;100.00;96083.66;1034388;28;20021;-67
2021/06/25 00:39:05;;;;;;;4.72;3.50;;;;;;;13.78;100.00;96081.63;1039016;28;20025;-67
2021/06/25 00:39:36;;;;;;;5.82;4.07;;;;;;;13.82;100.00;96087.13;1038774;28;20033;-68
2021/06/25 00:40:07;;;;;;;9.10;3.60;;;;;;;13.83;100.00;96086.84;1038955;28;20025;-68
2021/06/25 00:40:38;;;;;;;5.32;4.70;;;;;;;13.85;100.00;96087.38;1038455;28;20040;-66
2021/06/25 00:41:08;;;;;;;4.97;3.95;;;;;;;13.84;100.00;96082.34;1034781;28;20036;-69
2021/06/25 00:41:42;;;;;;;6.18;4.82;;;;;;;13.85;100.00;96091.88;1030843;28;20034;-66
2021/06/25 00:42:12;;;;;;;4.15;3.10;;;;;;;13.80;100.00;96084.75;1030398;28;20031;-66
2021/06/25 00:42:43;;;;;;;6.25;3.97;;;;;;;13.75;100.00;96073.44;1027163;28;20066;-68
2021/06/25 00:43:14;;;;;;;5.03;3.80;;;;;;;13.80;100.00;96084.75;1026588;28;20023;-66
2021/06/25 00:43:47;;;;;;;6.80;4.63;;;;;;;13.81;100.00;96086.31;1030907;28;20030;-68
2021/06/25 00:44:18;;;;;;;10.50;6.13;;;;;;;13.77;100.00;96076.59;1033943;28;20030;-66
2021/06/25 00:44:49;;;;;;;5.78;3.58;;;;;;;13.77;100.00;96081.88;1030569;28;20134;-67
2021/06/25 00:45:20;;;;;;;5.75;3.75;;;;;;;13.72;100.00;96077.44;1027397;28;20039;-67
2021/06/25 00:45:51;;;;;;;6.35;3.95;;;;;;;13.70;100.00;96076.13;1026307;28;20027;-68
2021/06/25 00:46:22;;;;;;;4.13;3.72;;;;;;;13.75;100.00;96079.53;1026840;28;20035;-68
2021/06/25 00:46:53;;;;;;;5.50;4.38;;;;;;;13.75;100.00;96076.88;1030672;28;20504;-67
2021/06/25 00:47:23;;;;;;;4.95;4.55;;;;;;;13.76;100.00;96078.44;1030860;28;20117;-66
2021/06/25 00:47:54;;;;;;;9.70;4.80;;;;;;;13.76;100.00;96082.94;1030846;28;20073;-69
2021/06/25 00:48:27;;;;;;;3.95;3.42;;;;;;;13.73;100.00;96088.78;1034653;28;20029;-67
2021/06/25 00:48:58;;;;;;;6.75;4.45;;;;;;;13.64;100.00;96070.88;1036754;28;20026;-67
2021/06/25 00:49:28;;;;;;;5.45;4.45;;;;;;;13.63;100.00;96079.06;1034596;28;20113;-68
2021/06/25 00:49:59;;;;;;;5.13;4.47;;;;;;;13.72;100.00;96082.72;1030151;28;20101;-67
2021/06/25 00:50:31;;;;;;;6.80;5.43;;;;;;;13.74;100.00;96079.78;1026580;28;20034;-67
2021/06/25 00:51:01;;;;;;;4.97;4.50;;;;;;;13.74;100.00;96074.50;1034565;28;20029;-67
2021/06/25 00:51:32;;;;;;;5.78;4.40;;;;;;;13.70;100.00;96084.81;1034221;28;20030;-67
2021/06/25 00:52:02;;;;;;;5.55;4.93;;;;;;;13.69;100.00;96080.63;1024867;28;20031;-67
2021/06/25 00:52:33;;;;;;;6.97;4.72;;;;;;;13.69;100.00;96083.25;1025735;28;20042;-68
2021/06/25 00:53:06;;;;;;;6.03;4.10;;;;;;;13.64;100.00;96075.34;1020528;29;20071;-67
2021/06/25 00:53:40;;;;;;;7.45;5.18;;;;;;;13.67;100.00;96080.88;1024557;28;20023;-67
2021/06/25 00:54:11;;;;;;;5.38;3.83;;;;;;;13.64;100.00;96075.34;1027870;28;20262;-67
2021/06/25 00:54:42;;;;;;;7.00;5.03;;;;;;;13.69;100.00;96083.25;1032311;28;20158;-67
2021/06/25 00:55:12;;;;;;;9.80;5.97;;;;;;;13.69;100.00;96077.97;1031535;28;20050;-67
2021/06/25 00:55:43;;;;;;;7.43;5.07;;;;;;;13.60;100.00;96074.34;1035637;28;20116;-69
2021/06/25 00:56:16;;;;;;;5.03;4.15;;;;;;;13.66;100.00;96081.16;1028108;28;20114;-67
2021/06/25 00:56:46;;;;;;;6.97;4.57;;;;;;;13.67;100.00;96070.31;1029849;28;20029;-67
2021/06/25 00:57:17;;;;;;;4.28;3.85;;;;;;;13.60;100.00;96069.06;1028684;28;20037;-67
2021/06/25 00:57:47;;;;;;;4.63;4.03;;;;;;;13.66;100.00;96073.25;1034322;28;20022;-70
2021/06/25 00:58:18;;;;;;;6.40;4.40;;;;;;;13.65;100.00;96076.97;1034642;28;20101;-67
2021/06/25 00:58:51;;;;;;;5.65;3.67;;;;;;;13.64;100.00;96080.63;1029013;28;20013;-69
2021/06/25 00:59:22;;;;;;;5.70;4.15;;;;;;;13.60;100.00;96069.06;1031019;28;20101;-66
2021/06/25 00:59:52;;;;;;;3.80;3.42;;;;;;;13.60;100.00;96079.59;1035397;28;20694;-67
2021/06/25 01:00:23;;;;;;;5.13;4.40;;;;;;;13.61;100.00;96075.91;1035434;28;20033;-69
2021/06/25 01:00:56;;;;;;;5.57;4.63;;;;;;;13.62;100.00;96077.50;1039687;28;20402;-67
2021/06/25 01:01:27;;;;;;;5.93;4.68;;;;;;;13.62;100.00;96078.28;1040295;28;20115;-66
2021/06/25 01:01:57;;;;;;;5.88;3.53;;;;;;;13.60;100.00;96074.34;1035385;28;20037;-67
2021/06/25 01:02:28;;;;;;;3.20;2.90;;;;;;;13.55;100.00;96077.81;1034674;28;20026;-67
2021/06/25 01:02:58;;;;;;;3.97;3.63;;;;;;;13.53;100.00;96079.91;1034045;28;20018;-67
2021/06/25 01:03:29;;;;;;;9.93;3.83;;;;;;;13.56;100.00;96075.94;1030649;28;20034;-67
2021/06/25 01:03:59;;;;;;;4.43;2.90;;;;;;;13.52;100.00;96072.28;1034807;28;20030;-66
2021/06/25 01:04:30;;;;;;;4.07;3.67;;;;;;;13.55;100.00;96074.38;1030328;28;20073;-66
2021/06/25 01:05:00;;;;;;;3.75;3.25;;;;;;;13.53;100.00;96079.91;1029950;28;20022;-67
2021/06/25 01:05:31;;;;;;;6.28;3.10;;;;;;;13.54;100.00;96081.47;1030947;28;20539;-68
2021/06/25 01:06:01;;;;;;;5.03;3.47;;;;;;;13.53;100.00;96079.91;1027078;28;20033;-67
2021/06/25 01:06:32;;;;;;;4.65;3.90;;;;;;;13.51;100.00;96075.97;1028638;28;22365;-66
2021/06/25 01:07:04;;;;;;;2.95;2.55;;;;;;;13.47;100.00;96077.56;1023876;28;20038;-67
2021/06/25 01:07:35;;;;;;;2.97;2.78;;;;;;;13.47;100.00;96077.56;1027505;28;20027;-66
2021/06/25 01:08:06;;;;;;;2.85;2.53;;;;;;;13.44;100.00;96079.69;1027267;28;20270;-66
2021/06/25 01:08:37;;;;;;;3.00;2.47;;;;;;;13.44;100.00;96082.31;1024300;28;20031;-69
2021/06/25 01:09:08;;;;;;;2.70;2.40;;;;;;;13.41;100.00;96079.44;1027990;28;20031;-67
2021/06/25 01:09:39;;;;;;;3.88;2.65;;;;;;;13.40;100.00;96076.03;1031612;28;20096;-66
2021/06/25 01:10:10;;;;;;;5.38;2.97;;;;;;;13.37;100.00;96081.81;1027894;28;20261;-67
2021/06/25 01:10:41;;;;;;;4.82;3.40;;;;;;;13.33;100.00;96078.16;1031632;28;20609;-65
2021/06/25 01:11:11;;;;;;;3.95;3.55;;;;;;;13.37;100.00;96078.41;1031594;28;20543;-67
2021/06/25 01:11:41;;;;;;;3.55;2.97;;;;;;;13.33;100.00;96070.25;1027724;28;20389;-66
2021/06/25 01:12:12;;;;;;;3.53;3.22;;;;;;;13.36;100.00;96075.00;1027647;28;20033;-66
2021/06/25 01:12:43;;;;;;;3.72;3.30;;;;;;;13.36;100.00;96079.47;1031779;28;20065;-67
2021/06/25 01:13:14;;;;;;;4.88;3.80;;;;;;;13.32;100.00;96083.72;1030405;28;20018;-67
2021/06/25 01:13:44;;;;;;;5.03;3.17;;;;;;;13.27;100.00;96076.59;1027849;28;20038;-67
2021/06/25 01:14:14;;;;;;;2.88;2.60;;;;;;;13.30;100.00;96077.91;1019577;29;20047;-67
2021/06/25 01:14:45;;;;;;;6.57;2.40;;;;;;;13.25;100.00;96067.41;1023099;28;20027;-67
2021/06/25 01:15:15;;;;;;;2.60;2.40;;;;;;;13.27;100.00;96087.16;1031641;28;20034;-69
2021/06/25 01:15:46;;;;;;;6.95;2.95;;;;;;;13.30;100.00;96081.34;1031700;28;20026;-67
2021/06/25 01:16:16;;;;;;;3.42;3.13;;;;;;;13.29;100.00;96074.50;1027522;28;20038;-67
2021/06/25 01:16:47;;;;;;;4.45;2.58;;;;;;;13.27;100.00;96076.59;1027444;28;20043;-67
2021/06/25 01:17:46;;;;;;;3.95;3.05;;;;;;;13.22;100.00;96084.53;1031459;28;20129;-67
2021/06/25 01:18:17;;;;;;;2.60;2.42;;;;;;;13.20;100.00;96081.34;1018664;29;20024;-69
2021/06/25 01:18:47;;;;;;;3.42;2.97;;;;;;;13.16;100.00;96070.56;1035262;28;20269;-68
2021/06/25 01:19:18;;;;;;;3.30;2.60;;;;;;;13.21;100.00;96083.75;1035614;28;20038;-66
2021/06/25 01:19:48;;;;;;;3.20;2.92;;;;;;;13.21;100.00;96082.94;1031528;28;20161;-66
2021/06/25 01:20:29;;;;;;;3.20;2.90;;;;;;;13.21;100.00;96085.56;1034951;28;20033;-66
2021/06/25 01:21:00;;;;;;;2.70;2.33;;;;;;;13.13;100.00;96081.66;1031643;28;20034;-66
2021/06/25 01:21:30;;;;;;;3.53;2.20;;;;;;;13.16;100.00;96091.66;1027171;28;20031;-66
2021/06/25 01:22:01;;;;;;;6.60;2.65;;;;;;;13.15;100.00;96081.41;1027546;28;20281;-66
2021/06/25 01:22:35;;;;;;;3.65;2.88;;;;;;;13.11;100.00;96078.50;1027732;28;20489;-66
2021/06/25 01:23:05;;;;;;;4.82;4.00;;;;;;;13.14;100.00;96082.44;1027512;28;20078;-67
2021/06/25 01:23:37;;;;;;;4.43;3.10;;;;;;;13.15;100.00;96081.41;1030401;28;20356;-66
2021/06/25 01:24:08;;;;;;;4.90;2.65;;;;;;;13.11;100.00;96082.97;1027407;28;20579;-67
2021/06/25 01:24:38;;;;;;;5.13;3.15;;;;;;;13.13;100.00;96088.78;1027662;28;20337;-67
2021/06/25 01:25:14;;;;;;;5.97;3.25;;;;;;;13.15;100.00;96084.81;1022942;28;20090;-66
2021/06/25 01:25:45;;;;;;;3.13;2.70;;;;;;;13.13;100.00;96080.88;1025717;28;20035;-67
2021/06/25 01:26:15;;;;;;;3.30;3.00;;;;;;;13.13;100.00;96081.66;1032061;28;20667;-67
2021/06/25 01:26:46;;;;;;;2.90;2.38;;;;;;;13.13;100.00;96083.50;1027600;28;20034;-67
2021/06/25 01:27:16;;;;;;;4.50;3.30;;;;;;;13.13;100.00;96078.22;1027962;28;20067;-67
2021/06/25 01:27:51;;;;;;;4.72;2.65;;;;;;;13.12;100.00;96084.56;1035640;28;20037;-67
2021/06/25 01:28:24;;;;;;;4.10;3.38;;;;;;;13.13;100.00;96079.00;1032066;28;20026;-67
2021/06/25 01:28:54;;;;;;;3.42;3.10;;;;;;;13.10;100.00;96081.41;1028039;28;20324;-67
2021/06/25 01:29:25;;;;;;;4.50;3.38;;;;;;;13.12;100.00;96080.09;1019648;29;20318;-67
2021/06/25 01:29:57;;;;;;;3.10;2.80;;;;;;;13.12;100.00;96076.66;1023878;28;20043;-66
2021/06/25 01:30:30;;;;;;;3.05;2.75;;;;;;;13.12;100.00;96079.28;1023834;28;20098;-67
2021/06/25 01:31:00;;;;;;;3.50;3.13;;;;;;;13.02;100.00;96066.94;1024859;28;20313;-66
2021/06/25 01:31:31;;;;;;;3.00;2.80;;;;;;;13.10;100.00;96081.41;1028641;28;20992;-68
2021/06/25 01:32:01;;;;;;;4.05;2.60;;;;;;;13.10;100.00;96082.19;1028376;28;20512;-70
2021/06/25 01:32:32;;;;;;;3.78;3.40;;;;;;;13.10;100.00;96078.78;1023344;29;20031;-67
2021/06/25 01:33:05;;;;;;;5.57;3.75;;;;;;;13.07;100.00;96076.66;1023190;29;20114;-67
2021/06/25 01:33:35;;;;;;;5.90;3.55;;;;;;;13.05;100.00;96079.59;1023019;28;20027;-67
2021/06/25 01:34:06;;;;;;;4.82;3.60;;;;;;;13.14;100.00;96087.69;1027573;28;20901;-67
2021/06/25 01:34:36;;;;;;;4.15;3.60;;;;;;;13.10;100.00;96081.41;1023792;29;20027;-67
2021/06/25 01:35:07;;;;;;;3.40;2.70;;;;;;;13.03;100.00;96070.38;1019557;29;20908;-67
2021/06/25 01:35:38;;;;;;;3.30;2.63;;;;;;;13.05;100.00;96079.59;1026845;28;20436;-67
2021/06/25 01:36:08;;;;;;;3.25;3.05;;;;;;;13.10;100.00;96086.66;1027708;28;20605;-67
2021/06/25 01:36:39;;;;;;;3.08;2.88;;;;;;;13.12;100.00;96082.72;1027900;28;20058;-66
2021/06/25 01:37:09;;;;;;;4.45;2.70;;;;;;;13.08;100.00;96080.91;1031791;28;20026;-67
2021/06/25 01:37:40;;;;;;;7.07;3.53;;;;;;;13.11;100.00;96082.97;1027495;28;20035;-67
2021/06/25 01:38:11;;;;;;;4.88;3.70;;;;;;;13.11;100.00;96085.59;1027192;28;20161;-67
2021/06/25 01:38:42;;;;;;;5.45;3.65;;;;;;;13.09;100.00;96079.84;1031448;28;20025;-67
2021/06/25 01:39:13;;;;;;;4.55;3.17;;;;;;;13.08;100.00;96084.31;1031492;28;20685;-68
2021/06/25 01:39:43;;;;;;;6.28;3.70;;;;;;;13.11;100.00;96089.06;1032213;28;20081;-69
2021/06/25 01:40:15;;;;;;;5.80;3.97;;;;;;;13.14;100.00;96079.78;1035803;28;20040;-67
2021/06/25 01:40:46;;;;;;;6.18;3.78;;;;;;;13.16;100.00;96080.31;1039271;28;20033;-67
2021/06/25 01:41:16;;;;;;;4.93;3.75;;;;;;;13.09;100.00;96072.72;1039974;28;20303;-67
2021/06/25 01:41:46;;;;;;;2.88;2.67;;;;;;;13.06;100.00;96065.34;1039650;28;20804;-67
2021/06/25 01:42:17;;;;;;;3.75;3.40;;;;;;;13.12;100.00;96080.09;1026681;28;20147;-67
2021/06/25 01:42:47;;;;;;;4.65;4.20;;;;;;;13.16;100.00;96075.84;1027629;28;20394;-71
2021/06/25 01:43:21;;;;;;;4.57;4.18;;;;;;;13.17;100.00;96089.81;1026791;28;20419;-67
2021/06/25 01:43:52;;;;;;;4.53;3.97;;;;;;;13.16;100.00;96080.31;1027653;28;20039;-67
2021/06/25 01:44:23;;;;;;;4.93;3.97;;;;;;;13.15;100.00;96084.03;1033578;28;20281;-67
2021/06/25 01:44:53;;;;;;;7.30;3.60;;;;;;;13.16;100.00;96081.13;1037489;28;20021;-67
2021/06/25 01:45:24;;;;;;;6.65;3.28;;;;;;;13.15;100.00;96084.81;1040031;28;20057;-67
2021/06/25 01:45:54;;;;;;;3.80;3.17;;;;;;;13.15;100.00;96079.53;1038955;28;20021;-68
2021/06/25 01:46:25;;;;;;;6.40;3.20;;;;;;;13.11;100.00;96067.16;1031180;28;20126;-66
2021/06/25 01:46:55;;;;;;;6.43;3.60;;;;;;;13.17;100.00;96079.25;1031897;28;20749;-66
2021/06/25 01:47:25;;;;;;;4.20;3.80;;;;;;;13.19;100.00;96083.22;1025385;28;20035;-66
2021/06/25 01:47:56;;;;;;;6.55;4.65;;;;;;;13.13;100.00;96075.59;1031686;28;20037;-67
2021/06/25 01:48:26;;;;;;;4.40;3.88;;;;;;;13.18;100.00;96083.50;1035302;28;20092;-67
2021/06/25 01:48:57;;;;;;;5.40;4.10;;;;;;;13.15;100.00;96078.75;1031036;28;20527;-66
2021/06/25 01:49:27;;;;;;;5.13;3.90;;;;;;;13.15;100.00;96079.53;1031728;28;20706;-69
2021/06/25 01:49:58;;;;;;;4.60;3.75;;;;;;;13.18;100.00;96078.22;1031535;28;20403;-67
2021/06/25 01:50:29;;;;;;;3.40;3.10;;;;;;;13.18;100.00;96080.84;1031326;28;20049;-66
2021/06/25 01:51:00;;;;;;;3.58;3.28;;;;;;;13.18;100.00;96080.84;1043425;28;20111;-66
2021/06/25 01:51:30;;;;;;;4.40;3.50;;;;;;;13.20;100.00;96084.00;1039479;28;20260;-66
2021/06/25 01:52:01;;;;;;;6.18;4.60;;;;;;;13.21;100.00;96082.94;1031822;28;20065;-66
2021/06/25 01:52:31;;;;;;;5.97;4.00;;;;;;;13.21;100.00;96081.09;1026881;28;20068;-67
2021/06/25 01:53:07;;;;;;;3.63;3.28;;;;;;;13.21;100.00;96082.94;1030911;28;20030;-67
2021/06/25 01:53:37;;;;;;;4.20;3.00;;;;;;;13.21;100.00;96077.66;1036513;28;20095;-66
2021/06/25 01:54:08;;;;;;;3.45;3.15;;;;;;;13.20;100.00;96078.72;1037148;28;20319;-67
2021/06/25 01:54:38;;;;;;;3.85;3.55;;;;;;;13.20;100.00;96082.16;1043719;28;20024;-68
2021/06/25 01:55:08;;;;;;;5.47;2.75;;;;;;;13.10;100.00;96061.09;1043845;28;20110;-67
2021/06/25 01:55:40;;;;;;;3.13;2.92;;;;;;;13.18;100.00;96083.50;1034771;28;20017;-67
2021/06/25 01:56:10;;;;;;;4.78;3.60;;;;;;;13.19;100.00;96085.06;1035658;28;20103;-67
2021/06/25 01:56:41;;;;;;;4.20;3.83;;;;;;;13.19;100.00;96074.53;1035286;28;20272;-67
2021/06/25 01:57:12;;;;;;;5.07;4.15;;;;;;;13.14;100.00;96079.78;1031312;28;20049;-66
2021/06/25 01:57:43;;;;;;;3.88;3.58;;;;;;;13.10;100.00;96065.59;1035437;28;20025;-66
2021/06/25 01:58:18;;;;;;;3.58;3.20;;;;;;;13.16;100.00;96080.31;1035233;28;20030;-67
2021/06/25 01:58:49;;;;;;;4.18;3.78;;;;;;;13.16;100.00;96075.06;1035413;28;20022;-67
2021/06/25 01:59:20;;;;;;;4.50;3.97;;;;;;;13.19;100.00;96074.53;1031919;28;20282;-66
2021/06/25 01:59:50;;;;;;;4.85;3.25;;;;;;;13.14;100.00;96077.16;1028989;28;20413;-67
2021/06/25 02:00:21;;;;;;;4.05;3.72;;;;;;;13.16;100.00;96075.06;1035631;28;20276;-66
2021/06/25 02:01:00;;;;;;;6.13;3.92;;;;;;;13.16;100.00;96069.78;1029994;28;20022;-66
2021/06/25 02:01:34;;;;;;;4.75;4.28;;;;;;;13.15;100.00;96071.63;1037344;28;20026;-66
2021/06/25 02:02:04;;;;;;;4.65;4.25;;;;;;;13.17;100.00;96074.00;1041339;28;20283;-66
2021/06/25 02:02:34;;;;;;;4.78;3.83;;;;;;;13.15;100.00;96071.63;1036428;28;20024;-66
2021/06/25 02:03:08;;;;;;;4.55;3.97;;;;;;;13.18;100.00;96072.97;1034859;28;20017;-66
2021/06/25 02:03:39;;;;;;;4.45;3.90;;;;;;;13.09;100.00;96061.41;1031348;28;20668;-67
2021/06/25 02:04:09;;;;;;;4.28;3.28;;;;;;;13.10;100.00;96065.59;1023289;29;20270;-67
2021/06/25 02:04:39;;;;;;;6.32;4.07;;;;;;;13.15;100.00;96076.13;1027303;28;20077;-66
2021/06/25 02:05:11;;;;;;;4.45;4.05;;;;;;;13.15;100.00;96069.00;1030614;28;20045;-67
2021/06/25 02:05:42;;;;;;;5.35;3.83;;;;;;;13.13;100.00;96059.78;1023532;29;20023;-67
2021/06/25 02:06:13;;;;;;;3.60;3.30;;;;;;;13.12;100.00;96068.75;1025040;28;20664;-66
2021/06/25 02:06:43;;;;;;;5.28;3.40;;;;;;;13.14;100.00;96067.41;1027284;28;20293;-66
2021/06/25 02:07:14;;;;;;;4.35;3.60;;;;;;;13.13;100.00;96063.22;1027998;28;20066;-66
2021/06/25 02:07:44;;;;;;;4.63;3.90;;;;;;;13.15;100.00;96073.50;1030668;28;20021;-67
2021/06/25 02:08:15;;;;;;;3.95;3.65;;;;;;;13.10;100.00;96057.69;1031095;28;20392;-66
2021/06/25 02:08:47;;;;;;;4.25;3.85;;;;;;;13.15;100.00;96070.84;1031677;28;20585;-66
2021/06/25 02:09:17;;;;;;;5.82;3.83;;;;;;;13.15;100.00;96068.22;1031125;28;20165;-66
2021/06/25 02:09:48;;;;;;;6.60;4.43;;;;;;;13.15;100.00;96068.22;1030856;28;20291;-67
2021/06/25 02:10:18;;;;;;;8.13;3.97;;;;;;;13.12;100.00;96066.13;1031727;28;20030;-67
2021/06/25 02:10:51;;;;;;;5.35;3.60;;;;;;;13.15;100.00;96068.22;1031357;28;20570;-67
2021/06/25 02:11:23;;;;;;;5.30;3.35;;;;;;;13.15;100.00;96068.22;1030914;28;20110;-67
2021/06/25 02:11:53;;;;;;;4.65;2.90;;;;;;;13.13;100.00;96065.84;1031226;28;20269;-66
2021/06/25 02:12:24;;;;;;;4.55;3.88;;;;;;;13.15;100.00;96066.38;1027972;28;20752;-66
2021/06/25 02:12:55;;;;;;;5.57;4.47;;;;;;;13.16;100.00;96073.22;1022700;28;20689;-66
2021/06/25 02:13:25;;;;;;;3.92;3.60;;;;;;;13.18;100.00;96070.31;1030131;28;20300;-67
2021/06/25 02:13:56;;;;;;;6.28;4.22;;;;;;;13.17;100.00;96076.63;1031349;28;20032;-66
2021/06/25 02:14:26;;;;;;;7.80;3.90;;;;;;;13.16;100.00;96067.16;1027335;28;20191;-67
2021/06/25 02:14:57;;;;;;;5.53;3.45;;;;;;;13.17;100.00;96069.50;1028498;28;20035;-67
2021/06/25 02:15:27;;;;;;;5.55;3.90;;;;;;;13.18;100.00;96068.47;1031463;28;20082;-67
2021/06/25 02:15:58;;;;;;;5.72;3.70;;;;;;;13.14;100.00;96067.41;1039512;28;20025;-67
2021/06/25 02:16:28;;;;;;;5.82;3.70;;;;;;;13.18;100.00;96067.69;1029149;28;20030;-66
2021/06/25 02:16:59;;;;;;;6.00;3.50;;;;;;;13.17;100.00;96074.00;1027349;28;20030;-66
2021/06/25 02:17:29;;;;;;;5.07;3.80;;;;;;;13.18;100.00;96072.97;1027160;28;20026;-67
2021/06/25 02:17:59;;;;;;;4.07;3.67;;;;;;;13.17;100.00;96066.09;1028626;28;20027;-67
2021/06/25 02:18:30;;;;;;;6.10;3.63;;;;;;;13.18;100.00;96068.47;1038218;28;20021;-67
2021/06/25 02:19:00;;;;;;;4.20;3.53;;;;;;;13.19;100.00;96069.25;1039484;28;20033;-67
2021/06/25 02:19:31;;;;;;;5.72;3.45;;;;;;;13.19;100.00;96069.25;1039392;28;20403;-67
2021/06/25 02:20:02;;;;;;;5.50;3.80;;;;;;;13.20;100.00;96070.81;1039424;28;20029;-66
2021/06/25 02:20:33;;;;;;;4.38;3.22;;;;;;;13.11;100.00;96057.44;1043479;28;20028;-67
2021/06/25 02:21:03;;;;;;;3.80;3.50;;;;;;;13.19;100.00;96074.53;1044176;28;20289;-67
2021/06/25 02:21:34;;;;;;;3.45;3.15;;;;;;;13.17;100.00;96069.50;1036172;28;20075;-67
2021/06/25 02:22:04;;;;;;;5.72;4.20;;;;;;;13.18;100.00;96068.47;1031436;28;20076;-68
2021/06/25 02:22:35;;;;;;;3.58;3.22;;;;;;;13.16;100.00;96064.53;1031254;28;20030;-70
2021/06/25 02:23:05;;;;;;;6.88;3.22;;;;;;;13.17;100.00;96069.50;1031722;28;20046;-69
2021/06/25 02:23:36;;;;;;;5.15;3.70;;;;;;;13.16;100.00;96067.94;1034153;28;20068;-69
2021/06/25 02:24:07;;;;;;;7.30;3.53;;;;;;;13.15;100.00;96061.09;1023262;29;20530;-68
2021/06/25 02:24:37;;;;;;;3.83;3.45;;;;;;;13.13;100.00;96059.78;1027212;28;20031;-68